Terminal Aerodrome Forecast
Issued by NWS Paducah, KY

Home | Current Version | Previous Version | Text Only | Print | Product List | Glossary On
Versions: 1 2 3 4 5 6 7 8 9 10 11 12 13 14 15 16
000
FTUS43 KPAH 281725
TAFPAH
TAF
KPAH 281725Z 2818/0118 06008KT P6SM OVC050
     FM010100 10004KT P6SM -FZRA BKN015 OVC035
     FM010800 15004KT 4SM -DZ BR OVC007
     FM011400 11003KT 3SM -DZ BR OVC005=

USA.gov is the U.S. government's official web portal to all federal, state and local government web resources and services.